Time;durP1;ratioP1;P1;durP2;ratioP2;P2;SDS_P1;SDS_P2;PMS_P1;PMS_P2;Temp;Humidity;BMP_temperature;BMP_pressure;BME280_temperature;BME280_humidity;BME280_pressure;Samples;Min_cycle;Max_cycle;Signal;HPM_P1;HPM_P2
2022/06/16 00:01:44;;;;;;;5.15;2.42;;;17.60;53.30;;;;;;9182526;19;20099;-66
2022/06/16 00:04:49;;;;;;;4.45;2.03;;;17.60;53.40;;;;;;9186645;19;20115;-67
2022/06/16 00:08:02;;;;;;;8.00;2.42;;;17.50;53.40;;;;;;9183238;19;20022;-68
2022/06/16 00:11:21;;;;;;;5.97;2.45;;;17.50;53.60;;;;;;9184480;19;20014;-68
2022/06/16 00:14:31;;;;;;;7.03;2.20;;;17.50;53.60;;;;;;9180904;19;20116;-67
2022/06/16 00:17:36;;;;;;;6.25;2.20;;;17.40;53.60;;;;;;9178198;19;20011;-68
2022/06/16 00:20:42;;;;;;;7.70;2.50;;;17.40;53.60;;;;;;9182336;19;20019;-67
2022/06/16 00:23:48;;;;;;;6.72;2.50;;;17.40;53.70;;;;;;9183960;19;20129;-67
2022/06/16 00:26:53;;;;;;;7.45;2.58;;;17.40;53.80;;;;;;9182119;19;20474;-66
2022/06/16 00:30:02;;;;;;;8.35;2.42;;;17.30;53.80;;;;;;9182389;19;20011;-66
2022/06/16 00:33:08;;;;;;;4.30;2.40;;;17.30;53.90;;;;;;9181113;19;20015;-67
2022/06/16 00:36:14;;;;;;;12.43;3.03;;;17.20;53.90;;;;;;9183594;19;20329;-68
2022/06/16 00:39:19;;;;;;;7.95;3.22;;;17.20;53.90;;;;;;9182336;19;20011;-67
2022/06/16 00:42:27;;;;;;;5.45;2.30;;;17.20;54.10;;;;;;9181774;19;20034;-69
2022/06/16 00:45:53;;;;;;;4.70;2.15;;;17.10;54.70;;;;;;9181693;19;20018;-66
2022/06/16 00:49:01;;;;;;;7.00;2.38;;;17.10;54.30;;;;;;9182123;19;20034;-66
2022/06/16 00:52:13;;;;;;;9.25;3.20;;;17.10;54.20;;;;;;9181302;19;20014;-66
2022/06/16 00:55:19;;;;;;;4.53;2.28;;;17.00;54.30;;;;;;9181728;19;20015;-68
2022/06/16 00:58:26;;;;;;;4.32;2.05;;;17.10;54.40;;;;;;9182116;19;20018;-66
2022/06/16 01:01:36;;;;;;;7.25;2.63;;;17.10;54.50;;;;;;9182212;19;20464;-68
2022/06/16 01:04:55;;;;;;;6.70;2.33;;;17.00;54.50;;;;;;9180848;19;20015;-68
2022/06/16 01:08:04;;;;;;;7.95;2.80;;;16.90;54.50;;;;;;9180112;19;20082;-68
2022/06/16 01:13:41;;;;;;;8.32;3.05;;;16.90;54.60;;;;;;9180733;19;20014;-66
2022/06/16 01:15:09;;;;;;;4.72;2.40;;;16.90;54.70;;;;;;9178267;19;20021;-66
2022/06/16 01:18:25;;;;;;;9.90;2.70;;;16.90;54.70;;;;;;9177149;19;20337;-67
2022/06/16 01:21:38;;;;;;;6.60;2.58;;;16.90;54.80;;;;;;9180409;19;20033;-67
2022/06/16 01:25:01;;;;;;;7.25;2.70;;;16.80;54.80;;;;;;9181673;19;20021;-66
2022/06/16 01:28:22;;;;;;;8.38;2.20;;;16.80;54.90;;;;;;9180604;19;20018;-67
2022/06/16 01:31:36;;;;;;;9.32;2.40;;;16.80;55.00;;;;;;9179869;19;20009;-67
2022/06/16 01:34:48;;;;;;;5.53;2.35;;;16.70;55.00;;;;;;9181149;19;20085;-67
2022/06/16 01:38:05;;;;;;;6.90;2.55;;;16.70;55.10;;;;;;9180580;19;20015;-68
2022/06/16 01:41:18;;;;;;;8.75;2.88;;;16.70;55.10;;;;;;9181405;19;20022;-67
2022/06/16 01:44:28;;;;;;;5.50;2.70;;;16.60;55.10;;;;;;9179856;19;20017;-68
2022/06/16 01:47:39;;;;;;;3.60;2.25;;;16.60;55.20;;;;;;9179565;19;20036;-68
2022/06/16 01:50:51;;;;;;;6.00;2.47;;;16.60;55.30;;;;;;9187058;19;20039;-68
2022/06/16 01:54:01;;;;;;;9.68;2.85;;;16.50;55.30;;;;;;9186169;19;20010;-68
2022/06/16 01:57:13;;;;;;;3.70;2.38;;;16.50;55.40;;;;;;9190900;19;20082;-68
2022/06/16 02:00:22;;;;;;;7.70;3.10;;;16.50;55.50;;;;;;9189360;19;20006;-69
2022/06/16 02:03:38;;;;;;;8.73;2.92;;;16.50;55.60;;;;;;9189296;19;20110;-69
2022/06/16 02:06:50;;;;;;;6.35;2.47;;;16.40;55.60;;;;;;9190128;19;20021;-68
2022/06/16 02:10:02;;;;;;;5.10;2.72;;;16.40;55.60;;;;;;9191419;19;20019;-68
2022/06/16 02:13:12;;;;;;;13.70;3.20;;;16.40;55.80;;;;;;9187473;19;20360;-69
2022/06/16 02:16:25;;;;;;;13.40;2.92;;;16.40;55.80;;;;;;9183980;19;20015;-67
2022/06/16 02:19:34;;;;;;;7.28;3.25;;;16.30;55.90;;;;;;9187290;19;20040;-67
2022/06/16 02:22:39;;;;;;;5.90;3.05;;;16.30;55.90;;;;;;9187770;19;20019;-68
2022/06/16 02:25:47;;;;;;;8.50;2.88;;;16.20;55.90;;;;;;9186792;19;20014;-67
2022/06/16 02:28:54;;;;;;;6.53;3.10;;;16.20;56.00;;;;;;9187293;19;20021;-68
2022/06/16 02:32:29;;;;;;;8.35;3.40;;;16.20;56.10;;;;;;9187137;19;20014;-67
2022/06/16 02:35:42;;;;;;;7.38;3.20;;;16.10;56.40;;;;;;9183678;19;20021;-67
2022/06/16 02:38:56;;;;;;;7.50;3.65;;;16.10;56.30;;;;;;9187518;19;20015;-67
2022/06/16 02:42:17;;;;;;;9.60;3.70;;;16.10;57.00;;;;;;9188411;19;20021;-67
2022/06/16 02:45:30;;;;;;;6.05;3.00;;;16.00;56.30;;;;;;9188058;19;20014;-67
2022/06/16 02:48:40;;;;;;;5.15;3.20;;;16.00;56.50;;;;;;9187127;19;20018;-68
2022/06/16 02:51:59;;;;;;;5.90;3.65;;;15.90;56.50;;;;;;9184946;19;20369;-67
2022/06/16 02:55:10;;;;;;;7.45;3.58;;;15.90;56.70;;;;;;9185149;19;20326;-68
2022/06/16 02:58:19;;;;;;;10.15;3.70;;;15.90;56.70;;;;;;9188477;19;20349;-67
2022/06/16 03:01:26;;;;;;;10.70;3.45;;;15.80;56.70;;;;;;9186089;19;20357;-66
2022/06/16 03:04:37;;;;;;;13.27;3.53;;;15.70;56.70;;;;;;9187142;19;20472;-68
2022/06/16 03:07:46;;;;;;;6.45;3.33;;;15.70;57.00;;;;;;9184637;19;20038;-67
2022/06/16 03:11:02;;;;;;;8.93;3.75;;;15.70;57.00;;;;;;9185812;19;20021;-66
2022/06/16 03:14:09;;;;;;;4.80;2.92;;;15.60;57.00;;;;;;9184216;19;20479;-68
2022/06/16 03:17:25;;;;;;;9.00;3.08;;;15.60;57.10;;;;;;9181947;19;20106;-66
2022/06/16 03:20:30;;;;;;;8.05;3.55;;;15.50;57.10;;;;;;9186454;19;20028;-66
2022/06/16 03:23:38;;;;;;;10.43;3.22;;;15.50;57.90;;;;;;9185302;19;20015;-68
2022/06/16 03:26:44;;;;;;;8.07;3.30;;;15.50;57.40;;;;;;9185137;19;20022;-67
2022/06/16 03:29:49;;;;;;;6.22;3.40;;;15.40;57.40;;;;;;9184711;19;20673;-67
2022/06/16 03:32:54;;;;;;;7.50;3.50;;;15.40;57.50;;;;;;9185255;19;20446;-67
2022/06/16 03:36:00;;;;;;;9.77;3.10;;;15.30;58.20;;;;;;9182351;19;20006;-67
2022/06/16 03:39:12;;;;;;;8.40;3.33;;;15.30;57.70;;;;;;9185074;19;20022;-66
2022/06/16 03:42:25;;;;;;;5.47;3.05;;;15.30;57.90;;;;;;9185414;19;20025;-67
2022/06/16 03:45:30;;;;;;;5.90;3.15;;;15.20;57.80;;;;;;9183804;19;20022;-66
2022/06/16 03:48:36;;;;;;;12.30;3.75;;;15.20;57.80;;;;;;9184183;19;20019;-66
2022/06/16 03:51:41;;;;;;;12.32;3.88;;;15.20;58.00;;;;;;9184025;19;20011;-67
2022/06/16 03:54:49;;;;;;;9.20;3.90;;;15.20;58.10;;;;;;9182731;19;20404;-66
2022/06/16 03:57:55;;;;;;;14.77;3.60;;;15.10;58.20;;;;;;9184293;19;20329;-67
2022/06/16 04:01:01;;;;;;;7.10;3.47;;;15.10;58.30;;;;;;9183993;19;20007;-67
2022/06/16 04:04:06;;;;;;;5.88;3.35;;;15.10;58.90;;;;;;9184249;19;20033;-66
2022/06/16 04:07:23;;;;;;;10.05;3.83;;;15.00;58.40;;;;;;9183707;19;20352;-66
2022/06/16 04:10:46;;;;;;;9.43;4.00;;;15.00;58.40;;;;;;9183550;19;20015;-67
2022/06/16 04:13:51;;;;;;;8.23;3.90;;;15.00;58.60;;;;;;9181008;19;20014;-67
2022/06/16 04:16:58;;;;;;;10.75;4.53;;;15.00;58.70;;;;;;9179565;19;20658;-67
2022/06/16 04:20:15;;;;;;;9.95;4.47;;;14.90;58.70;;;;;;9183505;19;20450;-66
2022/06/16 04:23:33;;;;;;;7.88;3.50;;;14.90;58.80;;;;;;9183337;19;20074;-67
2022/06/16 04:26:44;;;;;;;9.85;4.40;;;14.90;58.90;;;;;;9182157;19;20011;-67
2022/06/16 04:29:54;;;;;;;10.50;4.07;;;14.80;59.10;;;;;;9183341;19;20018;-66
2022/06/16 04:33:05;;;;;;;7.65;4.40;;;14.80;59.00;;;;;;9182684;19;20026;-68
2022/06/16 04:36:11;;;;;;;6.65;3.80;;;14.80;59.20;;;;;;9180620;19;20042;-67
2022/06/16 04:39:24;;;;;;;13.33;4.30;;;14.80;59.30;;;;;;9182619;19;20013;-67
2022/06/16 04:42:33;;;;;;;8.02;4.38;;;14.80;59.40;;;;;;9182943;19;20515;-67
2022/06/16 04:45:38;;;;;;;8.57;3.88;;;14.80;59.70;;;;;;9183089;19;20022;-67
2022/06/16 04:48:56;;;;;;;8.00;3.95;;;14.70;59.70;;;;;;9181366;19;20026;-66
2022/06/16 04:52:01;;;;;;;11.18;3.90;;;14.80;60.00;;;;;;9181922;19;20022;-68
2022/06/16 04:55:14;;;;;;;10.57;3.72;;;14.80;59.90;;;;;;9180256;19;20035;-67
2022/06/16 04:58:45;;;;;;;7.97;3.85;;;14.80;60.00;;;;;;9182090;19;20010;-67
2022/06/16 05:02:13;;;;;;;9.70;4.05;;;14.80;60.10;;;;;;9179708;19;20070;-68
2022/06/16 05:05:36;;;;;;;6.80;3.40;;;14.80;60.10;;;;;;9180785;19;20014;-68
2022/06/16 05:09:01;;;;;;;8.10;3.70;;;14.90;60.20;;;;;;9178724;19;20019;-69
2022/06/16 05:12:20;;;;;;;9.93;3.75;;;14.90;60.30;;;;;;9181871;19;20021;-67
2022/06/16 05:15:54;;;;;;;15.63;3.85;;;14.90;60.30;;;;;;9180439;19;20034;-67
2022/06/16 05:19:30;;;;;;;5.97;3.63;;;15.00;60.60;;;;;;9181376;19;20014;-68
2022/06/16 05:22:58;;;;;;;10.18;4.45;;;15.00;60.40;;;;;;9179732;19;20488;-68
2022/06/16 05:26:26;;;;;;;9.77;4.00;;;15.10;60.50;;;;;;9178638;19;20015;-67
2022/06/16 05:29:43;;;;;;;7.53;3.25;;;15.10;60.70;;;;;;9180526;19;20692;-68
2022/06/16 05:32:58;;;;;;;11.05;3.53;;;15.10;60.80;;;;;;9180133;19;20344;-68
2022/06/16 05:36:14;;;;;;;6.00;3.30;;;15.20;61.10;;;;;;9181277;19;20014;-69
2022/06/16 05:39:39;;;;;;;6.68;3.00;;;15.30;61.10;;;;;;9181069;19;20039;-69
2022/06/16 05:42:59;;;;;;;9.38;3.28;;;15.30;61.10;;;;;;9180978;19;20021;-68
2022/06/16 05:46:25;;;;;;;7.07;3.20;;;15.40;61.20;;;;;;9181384;19;20100;-67
2022/06/16 05:49:39;;;;;;;12.15;3.20;;;15.50;61.30;;;;;;9180461;19;20015;-67
2022/06/16 05:52:49;;;;;;;8.57;3.30;;;15.60;61.50;;;;;;9180453;19;20052;-68
2022/06/16 05:56:00;;;;;;;8.10;3.00;;;15.80;61.60;;;;;;9178157;19;20104;-68
2022/06/16 05:59:14;;;;;;;7.28;2.92;;;15.90;61.60;;;;;;9179099;19;20011;-69
2022/06/16 06:02:28;;;;;;;11.02;2.92;;;16.10;61.70;;;;;;9174158;19;20611;-67
2022/06/16 06:05:40;;;;;;;7.78;2.67;;;16.30;61.70;;;;;;9174610;19;20021;-67
2022/06/16 06:18:56;;;;;;;4.88;2.30;;;17.20;61.40;;;;;;9167048;19;20019;-67
2022/06/16 06:22:13;;;;;;;6.50;2.03;;;17.30;61.20;;;;;;9167744;19;20042;-67
2022/06/16 06:25:19;;;;;;;4.45;2.28;;;17.60;61.30;;;;;;9167292;19;20021;-66
2022/06/16 06:28:25;;;;;;;9.20;2.25;;;17.80;61.00;;;;;;9167498;19;20018;-66
2022/06/16 06:31:33;;;;;;;3.65;2.00;;;18.00;60.80;;;;;;9167570;19;20021;-66
2022/06/16 06:34:39;;;;;;;7.38;2.20;;;18.20;60.60;;;;;;9170866;19;20021;-66
2022/06/16 06:37:47;;;;;;;6.13;1.90;;;18.40;60.40;;;;;;9179382;19;20014;-66
2022/06/16 06:40:55;;;;;;;4.13;1.88;;;18.50;60.20;;;;;;9180881;19;20048;-67
2022/06/16 06:44:00;;;;;;;5.75;1.98;;;18.70;60.10;;;;;;9181791;19;20022;-67
2022/06/16 06:47:07;;;;;;;5.93;1.92;;;18.90;59.90;;;;;;9188042;19;20015;-66
2022/06/16 06:50:21;;;;;;;5.75;2.15;;;19.00;59.70;;;;;;9187600;19;20479;-67
2022/06/16 06:53:28;;;;;;;3.72;1.98;;;19.20;59.60;;;;;;9187202;19;20014;-67
2022/06/16 06:56:35;;;;;;;4.53;1.73;;;19.30;59.50;;;;;;9187048;19;20498;-66
2022/06/16 06:59:41;;;;;;;6.03;1.50;;;19.50;59.40;;;;;;9186588;19;20010;-67
2022/06/16 07:02:46;;;;;;;4.38;0.85;;;19.60;59.20;;;;;;9187246;19;20365;-67
2022/06/16 07:05:51;;;;;;;4.72;1.13;;;19.80;58.90;;;;;;9187825;19;20018;-69
2022/06/16 07:08:59;;;;;;;3.42;1.00;;;19.90;58.50;;;;;;9184540;19;20026;-67
2022/06/16 07:12:13;;;;;;;1.70;1.00;;;20.00;58.10;;;;;;9185106;19;20010;-66
2022/06/16 07:15:21;;;;;;;2.20;0.75;;;20.20;58.10;;;;;;9183783;19;20030;-68
2022/06/16 07:18:29;;;;;;;1.80;0.80;;;20.30;58.00;;;;;;9182087;19;20014;-67
2022/06/16 07:21:35;;;;;;;2.45;0.70;;;20.50;57.70;;;;;;9185506;19;20015;-67
2022/06/16 07:24:43;;;;;;;3.83;1.20;;;20.60;57.50;;;;;;9187924;19;20011;-67
2022/06/16 07:27:48;;;;;;;5.57;1.08;;;20.70;57.20;;;;;;9186258;19;20025;-67
2022/06/16 07:30:53;;;;;;;1.85;0.90;;;20.90;57.10;;;;;;9187914;19;20014;-68
2022/06/16 07:34:19;;;;;;;4.53;0.98;;;21.00;56.90;;;;;;9185136;19;20040;-66
2022/06/16 07:37:24;;;;;;;4.28;1.00;;;21.20;56.70;;;;;;9182935;19;20010;-66
2022/06/16 07:40:35;;;;;;;2.22;1.10;;;21.40;56.40;;;;;;9185802;19;20010;-66
2022/06/16 07:43:40;;;;;;;3.65;0.50;;;21.50;56.10;;;;;;9187394;19;20019;-66
2022/06/16 07:46:49;;;;;;;5.93;0.77;;;21.60;55.90;;;;;;9182242;19;20035;-69
2022/06/16 07:49:54;;;;;;;2.08;0.73;;;21.70;55.60;;;;;;9185273;19;20018;-66
2022/06/16 07:52:59;;;;;;;1.95;0.80;;;21.90;55.50;;;;;;9184826;19;20534;-67
2022/06/16 07:56:08;;;;;;;8.35;0.98;;;22.00;55.20;;;;;;9186499;19;20018;-70
2022/06/16 07:59:16;;;;;;;3.10;0.98;;;22.20;54.90;;;;;;9184679;19;20409;-70
2022/06/16 08:02:22;;;;;;;1.42;0.65;;;22.40;54.80;;;;;;9185590;19;20014;-71
2022/06/16 08:05:27;;;;;;;1.77;1.00;;;22.60;54.60;;;;;;9182463;19;20011;-69
2022/06/16 08:08:32;;;;;;;3.38;1.35;;;22.80;54.40;;;;;;9181038;19;20022;-68
2022/06/16 08:15:07;;;;;;;4.35;0.90;;;23.10;53.60;;;;;;9181262;19;20044;-66
2022/06/16 08:18:20;;;;;;;3.10;0.80;;;23.20;53.70;;;;;;9180206;19;20034;-67
2022/06/16 08:21:25;;;;;;;1.25;0.82;;;23.40;53.60;;;;;;9181718;19;20022;-69
2022/06/16 08:24:31;;;;;;;3.80;1.13;;;23.60;53.30;;;;;;9180993;19;20016;-68
2022/06/16 08:27:41;;;;;;;3.28;1.00;;;23.70;53.00;;;;;;9181692;19;20018;-70
2022/06/16 08:30:46;;;;;;;3.55;0.95;;;23.80;52.60;;;;;;9181484;19;20018;-68
2022/06/16 08:33:52;;;;;;;3.22;1.05;;;23.90;52.50;;;;;;9185330;19;20017;-69
2022/06/16 08:36:57;;;;;;;3.83;0.80;;;24.00;52.40;;;;;;9181390;19;20023;-69
2022/06/16 08:40:02;;;;;;;2.55;1.10;;;24.20;52.10;;;;;;9182126;19;20034;-68
2022/06/16 08:43:17;;;;;;;3.70;1.15;;;24.30;51.90;;;;;;9182076;19;20045;-68
2022/06/16 08:46:27;;;;;;;2.08;0.75;;;24.40;51.50;;;;;;9183264;19;20006;-69
2022/06/16 08:49:40;;;;;;;4.90;1.38;;;24.50;51.50;;;;;;9178526;19;20022;-68
2022/06/16 08:52:57;;;;;;;4.93;1.20;;;24.60;51.20;;;;;;9181170;19;20475;-67
2022/06/16 08:56:07;;;;;;;6.05;1.17;;;24.70;51.10;;;;;;9182017;19;20011;-67
2022/06/16 08:59:25;;;;;;;9.68;1.20;;;24.70;51.00;;;;;;9182992;19;20026;-66
2022/06/16 09:02:38;;;;;;;4.88;1.02;;;24.80;50.80;;;;;;9181476;19;20013;-65
2022/06/16 09:05:53;;;;;;;4.82;1.17;;;24.80;50.80;;;;;;9182031;19;20015;-65
2022/06/16 09:09:08;;;;;;;6.57;1.08;;;24.90;50.70;;;;;;9181376;19;20014;-65
2022/06/16 09:12:27;;;;;;;3.42;1.10;;;25.00;50.50;;;;;;9182914;19;20014;-65
2022/06/16 09:15:38;;;;;;;3.33;1.48;;;25.20;50.40;;;;;;9181710;19;20026;-66
2022/06/16 09:19:01;;;;;;;6.88;1.30;;;25.30;50.30;;;;;;9179895;19;20010;-65
2022/06/16 09:22:18;;;;;;;7.07;0.93;;;25.40;50.10;;;;;;9180802;19;20491;-65
2022/06/16 09:25:41;;;;;;;4.35;1.10;;;25.50;50.00;;;;;;9179311;19;20010;-66
2022/06/16 09:28:54;;;;;;;2.72;1.00;;;25.70;49.70;;;;;;9182879;19;20011;-64
2022/06/16 09:32:07;;;;;;;3.10;1.00;;;25.80;49.80;;;;;;9182671;19;20025;-65
2022/06/16 09:35:18;;;;;;;7.57;1.25;;;25.90;49.60;;;;;;9182161;19;20497;-65
2022/06/16 09:38:30;;;;;;;5.47;1.20;;;26.00;49.50;;;;;;9181348;19;20094;-65
2022/06/16 09:45:04;;;;;;;6.80;1.50;;;26.20;49.10;;;;;;9183016;19;20013;-66
2022/06/16 09:48:18;;;;;;;2.67;1.45;;;26.40;48.90;;;;;;9182017;19;20022;-66
2022/06/16 09:51:30;;;;;;;3.95;1.40;;;26.50;48.60;;;;;;9182007;19;20018;-65
2022/06/16 09:54:38;;;;;;;5.07;1.38;;;26.60;48.50;;;;;;9182789;19;20011;-66
2022/06/16 09:57:48;;;;;;;8.70;1.73;;;26.70;48.50;;;;;;9176914;19;20010;-71
2022/06/16 10:00:56;;;;;;;4.75;1.42;;;26.80;48.40;;;;;;9180375;19;20022;-71
2022/06/16 10:04:09;;;;;;;6.45;1.40;;;26.90;48.20;;;;;;9179716;19;20022;-70
2022/06/16 10:07:21;;;;;;;6.65;1.42;;;27.00;48.00;;;;;;9181088;19;20018;-72
2022/06/16 10:10:35;;;;;;;4.93;1.85;;;27.00;47.90;;;;;;9182289;19;20015;-72
2022/06/16 10:13:49;;;;;;;5.57;1.73;;;27.10;47.70;;;;;;9188608;19;20017;-70
2022/06/16 10:16:57;;;;;;;6.38;1.55;;;27.20;47.60;;;;;;9183306;19;20025;-70
2022/06/16 10:20:06;;;;;;;10.25;1.70;;;27.30;47.70;;;;;;9188432;19;20006;-70
2022/06/16 10:23:17;;;;;;;2.47;1.33;;;27.30;47.50;;;;;;9186601;19;20015;-70
2022/06/16 10:26:22;;;;;;;9.45;1.67;;;27.40;47.40;;;;;;9188451;19;20010;-71
2022/06/16 10:29:29;;;;;;;5.60;1.17;;;27.40;47.30;;;;;;9188011;19;20022;-69
2022/06/16 10:32:44;;;;;;;3.90;1.30;;;27.40;47.20;;;;;;9188441;19;20020;-72
2022/06/16 10:35:55;;;;;;;3.58;1.30;;;27.50;47.00;;;;;;9188702;19;20349;-71
2022/06/16 10:39:11;;;;;;;4.10;1.50;;;27.50;46.80;;;;;;9184482;19;20014;-71
2022/06/16 10:42:24;;;;;;;7.40;1.88;;;27.60;46.80;;;;;;9187868;19;20013;-71
2022/06/16 10:45:32;;;;;;;5.72;1.92;;;27.70;46.60;;;;;;9188789;19;20014;-71
2022/06/16 10:48:40;;;;;;;4.13;1.60;;;27.80;46.70;;;;;;9188880;19;20013;-72
2022/06/16 10:51:55;;;;;;;3.60;1.50;;;27.90;46.50;;;;;;9187284;19;20027;-74
2022/06/16 10:55:05;;;;;;;5.40;1.50;;;27.90;46.20;;;;;;9188629;19;20503;-73
2022/06/16 10:58:21;;;;;;;4.65;1.75;;;28.00;46.30;;;;;;9187610;19;20103;-71
2022/06/16 11:01:35;;;;;;;4.15;1.60;;;28.00;46.00;;;;;;9184292;19;20024;-71
2022/06/16 11:04:43;;;;;;;;;;;28.10;46.00;;;;;;9183695;19;20015;-69
2022/06/16 11:08:06;;;;;;;3.45;1.38;;;28.20;46.60;;;;;;9182652;19;20225;-74
2022/06/16 11:11:40;;;;;;;4.07;1.60;;;28.30;46.10;;;;;;9186405;19;20014;-69
2022/06/16 11:14:47;;;;;;;3.13;1.52;;;28.30;45.90;;;;;;9185496;19;20409;-70
2022/06/16 11:17:57;;;;;;;2.15;1.35;;;28.40;45.90;;;;;;9179968;19;20076;-71
2022/06/16 11:21:14;;;;;;;4.22;1.60;;;28.40;45.70;;;;;;9185526;19;20029;-67
2022/06/16 11:24:29;;;;;;;5.05;1.80;;;28.40;45.70;;;;;;9186323;19;20018;-68
2022/06/16 11:27:42;;;;;;;7.05;1.58;;;28.50;45.50;;;;;;9188342;19;20456;-68
2022/06/16 11:30:58;;;;;;;3.88;1.40;;;28.60;45.50;;;;;;9186895;19;20342;-68
2022/06/16 11:34:27;;;;;;;5.68;1.58;;;28.60;45.30;;;;;;9186459;19;20026;-68
2022/06/16 11:37:44;;;;;;;4.55;2.00;;;28.80;45.40;;;;;;9186830;19;20044;-67
2022/06/16 11:40:57;;;;;;;6.82;1.60;;;28.80;44.90;;;;;;9185597;19;20023;-67
2022/06/16 11:44:15;;;;;;;6.63;1.58;;;28.80;44.90;;;;;;9187211;19;20018;-68
2022/06/16 11:47:35;;;;;;;7.30;1.20;;;28.80;44.80;;;;;;9187170;19;20021;-67
2022/06/16 11:50:49;;;;;;;5.57;1.73;;;28.90;44.90;;;;;;9186088;19;20010;-68
2022/06/16 11:54:16;;;;;;;6.60;1.60;;;28.90;44.90;;;;;;9186690;19;20013;-68
2022/06/16 11:57:32;;;;;;;4.38;1.65;;;29.00;44.70;;;;;;9177608;19;20057;-68
2022/06/16 12:00:40;;;;;;;8.13;1.67;;;29.00;44.50;;;;;;9173681;19;20082;-68
2022/06/16 12:04:38;;;;;;;5.32;1.85;;;29.00;44.60;;;;;;9181268;19;20044;-68
2022/06/16 12:08:06;;;;;;;4.93;1.50;;;29.00;44.50;;;;;;9175739;19;20022;-69
2022/06/16 12:11:14;;;;;;;4.25;1.73;;;29.00;44.40;;;;;;9178362;19;20365;-67
2022/06/16 12:14:30;;;;;;;9.13;1.73;;;28.90;44.50;;;;;;9176383;19;20025;-68
2022/06/16 12:17:41;;;;;;;3.58;1.58;;;28.90;44.30;;;;;;9170524;19;20014;-68
2022/06/16 12:21:00;;;;;;;11.48;2.30;;;28.90;44.40;;;;;;9172480;19;20024;-68
2022/06/16 12:24:10;;;;;;;5.80;2.30;;;28.90;44.30;;;;;;9177931;19;20112;-68
2022/06/16 12:27:18;;;;;;;4.47;1.40;;;29.00;44.30;;;;;;9176887;19;20033;-68
2022/06/16 12:30:30;;;;;;;6.85;1.95;;;29.00;44.30;;;;;;9173041;19;20037;-68
2022/06/16 12:33:43;;;;;;;4.32;1.50;;;29.10;44.10;;;;;;9173665;19;20122;-68
2022/06/16 12:36:52;;;;;;;7.63;1.52;;;29.10;44.10;;;;;;9173873;19;20018;-68
2022/06/16 12:40:01;;;;;;;12.15;1.63;;;29.10;44.10;;;;;;9173441;19;20433;-68
2022/06/16 12:43:12;;;;;;;6.82;1.50;;;29.00;43.90;;;;;;9169953;19;20026;-67
2022/06/16 12:46:26;;;;;;;9.70;3.42;;;29.00;43.90;;;;;;9173602;19;20022;-69
2022/06/16 12:49:36;;;;;;;4.60;1.73;;;29.00;43.90;;;;;;9174867;19;20056;-68
2022/06/16 12:52:45;;;;;;;5.15;1.40;;;28.90;43.90;;;;;;9174583;19;20025;-68
2022/06/16 12:55:55;;;;;;;5.75;1.80;;;28.90;43.90;;;;;;9175155;19;20010;-68
2022/06/16 12:59:06;;;;;;;2.92;1.20;;;28.90;43.80;;;;;;9172193;19;20014;-68
2022/06/16 13:02:22;;;;;;;6.55;1.55;;;28.90;43.80;;;;;;9176051;19;20006;-68
2022/06/16 13:05:27;;;;;;;5.53;1.50;;;28.90;44.30;;;;;;9178022;19;20051;-68
2022/06/16 13:08:38;;;;;;;6.05;2.10;;;28.90;43.90;;;;;;9172477;19;20018;-68
2022/06/16 13:11:48;;;;;;;3.80;1.42;;;28.80;43.60;;;;;;9170552;19;20025;-67
2022/06/16 13:15:18;;;;;;;6.38;1.40;;;28.80;43.70;;;;;;9172598;19;20501;-67
2022/06/16 13:18:31;;;;;;;5.20;1.50;;;28.80;43.70;;;;;;9170771;19;20022;-69
2022/06/16 13:21:41;;;;;;;5.28;1.40;;;28.80;43.70;;;;;;9173873;19;20647;-68
2022/06/16 13:24:57;;;;;;;8.02;1.40;;;28.90;43.80;;;;;;9172431;19;20353;-69
2022/06/16 13:28:03;;;;;;;3.72;1.48;;;28.90;43.70;;;;;;9173483;19;20011;-68
2022/06/16 13:31:25;;;;;;;9.18;1.65;;;28.80;43.60;;;;;;9176061;19;20022;-69
2022/06/16 13:34:58;;;;;;;4.90;1.45;;;28.90;43.40;;;;;;9173981;19;20057;-68
2022/06/16 13:38:23;;;;;;;2.17;1.30;;;28.90;43.30;;;;;;9175087;19;20015;-69
2022/06/16 13:41:47;;;;;;;6.95;1.50;;;28.90;43.30;;;;;;9174148;19;20483;-68
2022/06/16 13:45:28;;;;;;;5.32;1.55;;;28.80;43.30;;;;;;9177906;19;20051;-68
2022/06/16 13:48:39;;;;;;;4.75;1.90;;;28.80;43.40;;;;;;9184888;19;20018;-68
2022/06/16 13:52:08;;;;;;;2.10;1.10;;;28.80;43.40;;;;;;9182935;19;20023;-68
2022/06/16 13:55:31;;;;;;;4.30;1.60;;;28.70;43.30;;;;;;9183265;19;20022;-68
2022/06/16 13:58:38;;;;;;;4.47;1.35;;;28.70;43.30;;;;;;9183405;19;20029;-67
2022/06/16 14:02:03;;;;;;;5.90;1.70;;;28.70;43.40;;;;;;9184817;19;20011;-70
2022/06/16 14:05:10;;;;;;;4.13;1.33;;;28.70;43.20;;;;;;9184888;19;20078;-68
2022/06/16 14:08:19;;;;;;;3.15;1.30;;;28.60;43.20;;;;;;9180228;19;20015;-69
2022/06/16 14:11:26;;;;;;;4.72;1.17;;;28.50;43.00;;;;;;9182955;19;20364;-67
2022/06/16 14:14:52;;;;;;;5.10;1.58;;;28.40;43.00;;;;;;9180567;19;20014;-68
2022/06/16 14:18:14;;;;;;;2.72;1.33;;;28.30;43.10;;;;;;9175316;19;20022;-67
2022/06/16 14:21:23;;;;;;;5.15;1.52;;;28.10;43.00;;;;;;9178837;19;20605;-67
2022/06/16 14:24:43;;;;;;;3.15;1.35;;;28.00;43.20;;;;;;9179986;19;20408;-67
2022/06/16 14:27:54;;;;;;;3.25;1.33;;;28.00;43.20;;;;;;9179257;19;20362;-67
2022/06/16 14:31:04;;;;;;;4.05;1.38;;;27.90;43.40;;;;;;9180949;19;20010;-67
2022/06/16 14:34:14;;;;;;;2.47;1.30;;;27.90;43.50;;;;;;9180938;19;20021;-68
2022/06/16 14:37:26;;;;;;;3.50;1.85;;;27.90;43.40;;;;;;9179469;19;20023;-67
2022/06/16 14:40:41;;;;;;;9.15;1.90;;;27.90;43.40;;;;;;9174474;19;20023;-68
2022/06/16 14:43:51;;;;;;;3.53;1.33;;;27.90;43.40;;;;;;9179240;19;20348;-70
2022/06/16 14:47:02;;;;;;;3.03;1.55;;;27.80;43.40;;;;;;9178506;19;20024;-69
2022/06/16 14:50:10;;;;;;;5.55;1.52;;;27.90;43.50;;;;;;9177882;19;20025;-68
2022/06/16 14:53:19;;;;;;;5.38;1.67;;;27.80;43.40;;;;;;9177069;19;20019;-68
2022/06/16 14:56:27;;;;;;;5.38;1.27;;;27.90;43.40;;;;;;9178099;19;20564;-69
2022/06/16 14:59:37;;;;;;;2.67;1.20;;;27.90;43.40;;;;;;9175716;19;20562;-66
2022/06/16 15:02:42;;;;;;;7.57;1.90;;;27.90;43.40;;;;;;9176913;19;20023;-67
2022/06/16 15:05:48;;;;;;;4.43;1.40;;;27.90;43.40;;;;;;9176803;19;20716;-67
2022/06/16 15:08:57;;;;;;;8.10;1.50;;;27.90;43.40;;;;;;9175421;19;20022;-66
2022/06/16 15:12:06;;;;;;;4.95;1.33;;;27.90;43.30;;;;;;9176303;19;20018;-69
2022/06/16 15:15:17;;;;;;;4.07;1.88;;;27.90;43.20;;;;;;9177033;19;20021;-68
2022/06/16 15:18:21;;;;;;;6.97;1.60;;;27.90;43.20;;;;;;9175486;19;20372;-65
2022/06/16 15:21:27;;;;;;;4.10;1.63;;;27.80;43.10;;;;;;9175527;19;20030;-70
2022/06/16 15:24:42;;;;;;;5.95;1.80;;;27.80;43.20;;;;;;9176265;19;20673;-67
2022/06/16 15:27:51;;;;;;;6.38;1.50;;;27.70;43.20;;;;;;9175991;19;20368;-67
2022/06/16 15:31:08;;;;;;;9.85;1.77;;;27.70;43.20;;;;;;9177359;19;20049;-69
2022/06/16 15:37:34;;;;;;;5.28;2.15;;;27.80;43.40;;;;;;9176668;19;20010;-67
2022/06/16 15:40:39;;;;;;;4.38;1.77;;;27.80;43.30;;;;;;9174947;19;20025;-68
2022/06/16 15:43:48;;;;;;;10.82;1.73;;;27.80;43.20;;;;;;9174983;19;20424;-68
2022/06/16 15:46:58;;;;;;;8.18;1.88;;;27.80;43.20;;;;;;9176072;19;20022;-68
2022/06/16 15:50:07;;;;;;;4.85;2.00;;;27.70;43.20;;;;;;9177448;19;20409;-68
2022/06/16 15:53:16;;;;;;;3.83;1.83;;;27.70;43.20;;;;;;9174905;19;20018;-66
2022/06/16 15:56:27;;;;;;;5.47;1.58;;;27.70;43.20;;;;;;9174973;19;20333;-68
2022/06/16 15:59:52;;;;;;;6.03;1.42;;;27.60;43.20;;;;;;9174573;19;20033;-69
2022/06/16 16:02:59;;;;;;;3.50;1.48;;;27.70;43.20;;;;;;9175843;19;20019;-68
2022/06/16 16:06:05;;;;;;;4.30;1.55;;;27.70;43.30;;;;;;9175604;19;20086;-68
2022/06/16 16:09:13;;;;;;;5.55;2.13;;;27.70;43.30;;;;;;9170786;19;20029;-69
2022/06/16 16:12:21;;;;;;;6.05;1.92;;;27.70;43.30;;;;;;9175456;19;20501;-68
2022/06/16 16:15:29;;;;;;;2.50;1.55;;;27.70;43.20;;;;;;9178120;19;20022;-68
2022/06/16 16:18:39;;;;;;;3.25;1.65;;;27.60;43.20;;;;;;9176340;19;20470;-68
2022/06/16 16:21:49;;;;;;;5.32;1.45;;;27.50;43.20;;;;;;9176479;19;20026;-69
2022/06/16 16:24:56;;;;;;;8.23;1.90;;;27.40;43.10;;;;;;9180219;19;20011;-69
2022/06/16 16:28:05;;;;;;;4.10;1.60;;;27.30;43.20;;;;;;9181016;19;20010;-67
2022/06/16 16:31:16;;;;;;;4.65;1.80;;;27.30;43.30;;;;;;9182713;19;20470;-67
2022/06/16 16:34:31;;;;;;;3.88;1.90;;;27.20;43.40;;;;;;9182937;19;20010;-68
2022/06/16 16:37:37;;;;;;;7.55;1.80;;;27.10;43.40;;;;;;9184406;19;20509;-68
2022/06/16 16:44:01;;;;;;;2.85;1.85;;;26.90;43.40;;;;;;9175238;19;20025;-68
2022/06/16 16:47:18;;;;;;;6.13;1.80;;;26.80;43.40;;;;;;9172613;19;20018;-68
2022/06/16 16:50:23;;;;;;;5.55;1.88;;;26.80;43.50;;;;;;9173072;19;20412;-69
2022/06/16 16:53:32;;;;;;;4.93;2.28;;;26.70;43.60;;;;;;9173291;19;20002;-67
2022/06/16 16:56:49;;;;;;;4.63;1.80;;;26.70;43.70;;;;;;9173436;19;20021;-69
2022/06/16 16:59:56;;;;;;;5.00;2.00;;;26.60;43.70;;;;;;9173520;19;21685;-68
2022/06/16 17:03:04;;;;;;;13.93;1.75;;;26.50;43.70;;;;;;9175150;19;20931;-69